Time;durP1;ratioP1;P1;durP2;ratioP2;P2;SDS_P1;SDS_P2;PMS_P1;PMS_P2;Temp;Humidity;BMP_temperature;BMP_pressure;BME280_temperature;BME280_humidity;BME280_pressure;Samples;Min_cycle;Max_cycle;Signal;HPM_P1;HPM_P2
2023/05/01 00:00:59;;;;;;;58.07;3.33;;;;;;;;;;5071150;28;20847;-69
2023/05/01 00:03:26;;;;;;;57.60;2.70;;;;;;;;;;5071288;28;20994;-69
2023/05/01 00:05:59;;;;;;;57.27;2.40;;;;;;;;;;5071087;28;20486;-69
2023/05/01 00:08:26;;;;;;;58.00;2.77;;;;;;;;;;5071639;28;20454;-68
2023/05/01 00:10:53;;;;;;;57.70;3.13;;;;;;;;;;5071014;28;20467;-68
2023/05/01 00:13:23;;;;;;;57.37;2.53;;;;;;;;;;5071210;28;20748;-68
2023/05/01 00:15:50;;;;;;;57.40;2.30;;;;;;;;;;5071096;28;20451;-69
2023/05/01 00:18:19;;;;;;;57.50;3.17;;;;;;;;;;5071198;28;20451;-69
2023/05/01 00:20:46;;;;;;;56.37;2.67;;;;;;;;;;5070958;28;20584;-69
2023/05/01 00:23:13;;;;;;;57.60;2.77;;;;;;;;;;5071040;28;20450;-69
2023/05/01 00:25:41;;;;;;;58.57;2.97;;;;;;;;;;5070913;28;20485;-69
2023/05/01 00:28:08;;;;;;;58.07;3.47;;;;;;;;;;5074186;28;20978;-68
2023/05/01 00:30:35;;;;;;;57.43;2.60;;;;;;;;;;5074542;28;20473;-68
2023/05/01 00:33:02;;;;;;;57.30;2.40;;;;;;;;;;5074824;28;20450;-69
2023/05/01 00:35:31;;;;;;;57.57;2.60;;;;;;;;;;5074660;28;20451;-69
2023/05/01 00:37:58;;;;;;;57.43;2.47;;;;;;;;;;5074757;28;20952;-69
2023/05/01 00:40:25;;;;;;;57.27;2.37;;;;;;;;;;5074119;28;20471;-69
2023/05/01 00:42:53;;;;;;;57.33;2.40;;;;;;;;;;5074278;28;20823;-69
2023/05/01 00:45:20;;;;;;;57.27;2.53;;;;;;;;;;5074418;28;20487;-69
2023/05/01 00:47:47;;;;;;;57.60;2.90;;;;;;;;;;5074431;28;20508;-68
2023/05/01 00:50:15;;;;;;;61.80;4.10;;;;;;;;;;5073907;28;20463;-68
2023/05/01 00:52:43;;;;;;;57.30;2.30;;;;;;;;;;5074231;28;20828;-68
2023/05/01 00:55:11;;;;;;;58.20;3.50;;;;;;;;;;5074146;28;20451;-68
2023/05/01 00:57:38;;;;;;;57.03;2.50;;;;;;;;;;5074033;28;20454;-68
2023/05/01 01:00:07;;;;;;;57.97;2.90;;;;;;;;;;5073870;28;20467;-68
2023/05/01 01:02:34;;;;;;;57.63;2.80;;;;;;;;;;5074236;28;20451;-68
2023/05/01 01:05:03;;;;;;;57.27;2.73;;;;;;;;;;5074166;28;20447;-68
2023/05/01 01:07:37;;;;;;;57.30;2.50;;;;;;;;;;5073956;28;20877;-68
2023/05/01 01:10:11;;;;;;;58.87;3.83;;;;;;;;;;5073501;28;20467;-68
2023/05/01 01:12:40;;;;;;;57.43;2.50;;;;;;;;;;5072476;28;20447;-68
2023/05/01 01:15:10;;;;;;;57.37;2.57;;;;;;;;;;5073733;28;20455;-68
2023/05/01 01:17:39;;;;;;;59.37;4.50;;;;;;;;;;5074024;28;20455;-68
2023/05/01 01:20:24;;;;;;;57.67;2.90;;;;;;;;;;5073433;28;20991;-68
2023/05/01 01:22:53;;;;;;;57.43;2.60;;;;;;;;;;5073635;28;20962;-68
2023/05/01 01:25:29;;;;;;;57.60;2.90;;;;;;;;;;5073537;28;20459;-68
2023/05/01 01:28:04;;;;;;;57.70;3.00;;;;;;;;;;5073530;28;20908;-68
2023/05/01 01:31:04;;;;;;;57.27;2.47;;;;;;;;;;5073548;28;20477;-69
2023/05/01 01:33:47;;;;;;;57.47;2.70;;;;;;;;;;5011376;28;20873;-68
2023/05/01 01:36:18;;;;;;;58.07;3.53;;;;;;;;;;4999794;28;20955;-68
2023/05/01 01:38:46;;;;;;;57.30;2.80;;;;;;;;;;5009846;28;20461;-68
2023/05/01 01:41:18;;;;;;;57.53;2.60;;;;;;;;;;5011182;28;20462;-68
2023/05/01 01:43:47;;;;;;;57.47;2.90;;;;;;;;;;5011249;28;20472;-68
2023/05/01 01:46:16;;;;;;;57.40;2.50;;;;;;;;;;5011200;28;20485;-68
2023/05/01 01:48:46;;;;;;;59.97;5.67;;;;;;;;;;5010762;28;20832;-69
2023/05/01 01:51:15;;;;;;;57.40;2.90;;;;;;;;;;5011020;28;20497;-68
2023/05/01 01:53:46;;;;;;;57.47;2.50;;;;;;;;;;5011063;28;20951;-69
2023/05/01 01:56:15;;;;;;;57.40;2.30;;;;;;;;;;5011157;28;20442;-68
2023/05/01 01:58:43;;;;;;;57.30;2.67;;;;;;;;;;5010610;28;20951;-68
2023/05/01 02:01:10;;;;;;;57.20;2.50;;;;;;;;;;5010938;28;20470;-68
2023/05/01 02:03:39;;;;;;;57.37;2.40;;;;;;;;;;5020795;28;20526;-68
2023/05/01 02:06:07;;;;;;;57.30;2.60;;;;;;;;;;5072795;28;20489;-69
2023/05/01 02:08:35;;;;;;;57.17;2.50;;;;;;;;;;5072439;28;20457;-68
2023/05/01 02:11:04;;;;;;;57.67;2.60;;;;;;;;;;5072841;28;20844;-68
2023/05/01 02:13:32;;;;;;;57.40;2.60;;;;;;;;;;5072551;28;20477;-68
2023/05/01 02:15:59;;;;;;;57.60;2.73;;;;;;;;;;5072815;28;20450;-68
2023/05/01 02:18:28;;;;;;;57.97;2.87;;;;;;;;;;5072658;28;20827;-68
2023/05/01 02:20:56;;;;;;;57.40;2.50;;;;;;;;;;5072417;28;20463;-68
2023/05/01 02:23:25;;;;;;;57.07;2.30;;;;;;;;;;5072341;28;20985;-69
2023/05/01 02:25:53;;;;;;;57.20;2.53;;;;;;;;;;5072331;28;20506;-68
2023/05/01 02:28:23;;;;;;;57.37;2.77;;;;;;;;;;5072394;28;20483;-69
2023/05/01 02:30:51;;;;;;;57.03;2.40;;;;;;;;;;5072217;28;20471;-68
2023/05/01 02:33:18;;;;;;;57.40;2.43;;;;;;;;;;5072399;28;20459;-68
2023/05/01 02:35:46;;;;;;;57.27;2.40;;;;;;;;;;5072268;28;20932;-68
2023/05/01 02:38:15;;;;;;;57.90;2.70;;;;;;;;;;5072185;28;20447;-68
2023/05/01 02:40:43;;;;;;;57.17;2.53;;;;;;;;;;5071746;28;20901;-68
2023/05/01 02:43:11;;;;;;;57.37;2.40;;;;;;;;;;5072380;28;20452;-68
2023/05/01 02:45:40;;;;;;;58.37;3.23;;;;;;;;;;5072128;28;20505;-68
2023/05/01 02:48:08;;;;;;;57.27;2.80;;;;;;;;;;5071958;28;20443;-68
2023/05/01 02:50:39;;;;;;;57.07;2.20;;;;;;;;;;5071479;28;20489;-68
2023/05/01 02:53:07;;;;;;;57.10;2.37;;;;;;;;;;5071873;28;20491;-68
2023/05/01 02:55:34;;;;;;;57.37;2.47;;;;;;;;;;5071925;28;20943;-68
2023/05/01 02:58:01;;;;;;;57.50;3.33;;;;;;;;;;5071855;28;20501;-68
2023/05/01 03:00:28;;;;;;;57.33;2.30;;;;;;;;;;5071587;28;21090;-69
2023/05/01 03:02:57;;;;;;;58.30;3.70;;;;;;;;;;5071944;28;20447;-69
2023/05/01 03:05:24;;;;;;;57.67;3.37;;;;;;;;;;5071857;28;20455;-69
2023/05/01 03:07:51;;;;;;;57.00;2.30;;;;;;;;;;5072123;28;20490;-69
2023/05/01 03:10:18;;;;;;;57.17;2.40;;;;;;;;;;5071657;28;20468;-69
2023/05/01 03:12:46;;;;;;;57.10;2.47;;;;;;;;;;5071979;28;20466;-69
2023/05/01 03:15:13;;;;;;;57.13;2.47;;;;;;;;;;5071865;28;20455;-69
2023/05/01 03:17:40;;;;;;;59.20;3.00;;;;;;;;;;5071646;28;20438;-68
2023/05/01 03:20:09;;;;;;;57.30;2.40;;;;;;;;;;5071268;28;20475;-68
2023/05/01 03:22:36;;;;;;;57.87;2.87;;;;;;;;;;5071872;28;20529;-68
2023/05/01 03:25:04;;;;;;;57.37;2.47;;;;;;;;;;5071507;28;20471;-68
2023/05/01 03:27:31;;;;;;;56.97;2.30;;;;;;;;;;5071711;28;20483;-68
2023/05/01 03:29:58;;;;;;;56.83;2.20;;;;;;;;;;5071247;28;20477;-68
2023/05/01 03:32:27;;;;;;;64.70;4.80;;;;;;;;;;5071618;28;20454;-68
2023/05/01 03:34:55;;;;;;;56.77;2.40;;;;;;;;;;5071396;28;20447;-68
2023/05/01 03:37:23;;;;;;;56.50;2.30;;;;;;;;;;5071705;28;20447;-68
2023/05/01 03:39:51;;;;;;;57.27;2.53;;;;;;;;;;5071282;28;20490;-68
2023/05/01 03:42:18;;;;;;;57.53;3.07;;;;;;;;;;5071418;28;20456;-68
2023/05/01 03:44:45;;;;;;;57.17;2.20;;;;;;;;;;5071484;28;20832;-68
2023/05/01 03:47:12;;;;;;;57.13;2.30;;;;;;;;;;5071257;28;21082;-68
2023/05/01 03:49:40;;;;;;;60.07;3.17;;;;;;;;;;5071232;28;20469;-68
2023/05/01 03:52:07;;;;;;;57.30;2.30;;;;;;;;;;5071456;28;20451;-68
2023/05/01 03:54:36;;;;;;;57.23;2.43;;;;;;;;;;5071622;28;20442;-68
2023/05/01 03:57:03;;;;;;;57.37;2.40;;;;;;;;;;5071252;28;20520;-68
2023/05/01 03:59:30;;;;;;;57.17;2.47;;;;;;;;;;5070834;28;20503;-68
2023/05/01 04:01:57;;;;;;;57.00;2.20;;;;;;;;;;5072599;28;20952;-69
2023/05/01 04:04:25;;;;;;;57.20;2.50;;;;;;;;;;5075363;28;20446;-68
2023/05/01 04:06:52;;;;;;;57.23;2.30;;;;;;;;;;5075203;28;20570;-68
2023/05/01 04:09:19;;;;;;;56.47;2.40;;;;;;;;;;5074711;28;20473;-68
2023/05/01 04:11:48;;;;;;;57.20;2.80;;;;;;;;;;5074959;28;20455;-68
2023/05/01 04:14:15;;;;;;;56.93;2.50;;;;;;;;;;5074940;28;20453;-68
2023/05/01 04:16:42;;;;;;;57.37;2.60;;;;;;;;;;5074879;28;20447;-68
2023/05/01 04:19:09;;;;;;;57.37;2.70;;;;;;;;;;5074652;28;20879;-68
2023/05/01 04:21:36;;;;;;;57.40;2.90;;;;;;;;;;5074854;28;20439;-68
2023/05/01 04:24:04;;;;;;;57.17;2.47;;;;;;;;;;5074643;28;20463;-68
2023/05/01 04:26:31;;;;;;;57.20;2.60;;;;;;;;;;5074870;28;20483;-68
2023/05/01 04:28:59;;;;;;;57.07;2.33;;;;;;;;;;5074300;28;20443;-68
2023/05/01 04:31:26;;;;;;;57.33;2.80;;;;;;;;;;5074924;28;20469;-68
2023/05/01 04:33:54;;;;;;;57.53;3.07;;;;;;;;;;5074782;28;20449;-68
2023/05/01 04:36:21;;;;;;;57.17;2.40;;;;;;;;;;5074623;28;20447;-68
2023/05/01 04:38:48;;;;;;;56.97;2.60;;;;;;;;;;5074124;28;20454;-68
2023/05/01 04:41:15;;;;;;;57.17;2.43;;;;;;;;;;5074420;28;20463;-68
2023/05/01 04:43:42;;;;;;;57.37;2.70;;;;;;;;;;5074302;28;20447;-68
2023/05/01 04:46:11;;;;;;;57.63;3.47;;;;;;;;;;5074289;28;20932;-68
2023/05/01 04:48:38;;;;;;;56.97;2.17;;;;;;;;;;5073955;28;20443;-68
2023/05/01 04:51:05;;;;;;;58.43;4.20;;;;;;;;;;5074227;28;20542;-68
2023/05/01 04:53:32;;;;;;;56.60;2.30;;;;;;;;;;5074220;28;20448;-68
2023/05/01 04:55:59;;;;;;;56.87;2.37;;;;;;;;;;5074131;28;20447;-68
2023/05/01 04:58:27;;;;;;;57.27;2.40;;;;;;;;;;5074304;28;20444;-68
2023/05/01 05:00:54;;;;;;;57.20;2.43;;;;;;;;;;5073831;28;20983;-68
2023/05/01 05:03:22;;;;;;;57.40;2.70;;;;;;;;;;5074174;28;20454;-68
2023/05/01 05:05:49;;;;;;;57.57;3.37;;;;;;;;;;5073903;28;20454;-68
2023/05/01 05:08:16;;;;;;;57.20;2.40;;;;;;;;;;5073918;28;20505;-68
2023/05/01 05:10:43;;;;;;;57.00;2.40;;;;;;;;;;5073531;28;20467;-68
2023/05/01 05:13:10;;;;;;;56.93;2.40;;;;;;;;;;5073636;28;20962;-68
2023/05/01 05:15:37;;;;;;;56.97;2.30;;;;;;;;;;5073987;28;20447;-68
2023/05/01 05:18:05;;;;;;;57.37;2.70;;;;;;;;;;5073810;28;20454;-68
2023/05/01 05:20:33;;;;;;;57.60;3.07;;;;;;;;;;5073435;28;20467;-68
2023/05/01 05:23:00;;;;;;;57.23;2.50;;;;;;;;;;5073703;28;20951;-68
2023/05/01 05:25:27;;;;;;;57.60;3.43;;;;;;;;;;5073735;28;20459;-68
2023/05/01 05:27:54;;;;;;;57.17;2.43;;;;;;;;;;5073675;28;20494;-68
2023/05/01 05:30:21;;;;;;;57.17;2.43;;;;;;;;;;5073432;28;20475;-68
2023/05/01 05:32:48;;;;;;;57.27;2.50;;;;;;;;;;5073589;28;20447;-68
2023/05/01 05:35:16;;;;;;;59.30;3.97;;;;;;;;;;5073414;28;20444;-68
2023/05/01 05:37:44;;;;;;;57.27;2.40;;;;;;;;;;5073287;28;20486;-68
2023/05/01 05:40:12;;;;;;;57.70;3.00;;;;;;;;;;5073336;28;20483;-68
2023/05/01 05:42:39;;;;;;;57.60;3.57;;;;;;;;;;5073453;28;20454;-68
2023/05/01 05:45:07;;;;;;;57.20;2.50;;;;;;;;;;5073342;28;20443;-68
2023/05/01 05:47:34;;;;;;;57.13;2.20;;;;;;;;;;5073168;28;20493;-68
2023/05/01 05:50:01;;;;;;;57.30;2.60;;;;;;;;;;5073252;28;20471;-68
2023/05/01 05:52:28;;;;;;;57.50;2.77;;;;;;;;;;5073042;28;20916;-68
2023/05/01 05:54:57;;;;;;;57.17;2.20;;;;;;;;;;5073238;28;20444;-68
2023/05/01 05:57:24;;;;;;;57.60;3.27;;;;;;;;;;5073194;28;20811;-68
2023/05/01 05:59:51;;;;;;;57.50;2.87;;;;;;;;;;5072784;28;20467;-68
2023/05/01 06:02:19;;;;;;;57.07;2.40;;;;;;;;;;5072860;28;20970;-68
2023/05/01 06:04:46;;;;;;;57.27;2.87;;;;;;;;;;5072796;28;20447;-68
2023/05/01 06:07:13;;;;;;;57.03;2.37;;;;;;;;;;5072670;28;20999;-68
2023/05/01 06:09:40;;;;;;;57.13;2.37;;;;;;;;;;5072396;28;20537;-68
2023/05/01 06:12:08;;;;;;;56.87;2.20;;;;;;;;;;5072790;28;20530;-68
2023/05/01 06:14:36;;;;;;;57.13;2.30;;;;;;;;;;5072748;28;20443;-68
2023/05/01 06:17:03;;;;;;;57.97;3.37;;;;;;;;;;5072642;28;20456;-68
2023/05/01 06:19:30;;;;;;;57.07;2.17;;;;;;;;;;5072105;28;20471;-68
2023/05/01 06:21:57;;;;;;;57.03;2.17;;;;;;;;;;5072708;28;20498;-68
2023/05/01 06:24:24;;;;;;;59.30;2.87;;;;;;;;;;5071933;28;20451;-68
2023/05/01 06:26:51;;;;;;;57.27;2.50;;;;;;;;;;5072467;28;20470;-68
2023/05/01 06:29:20;;;;;;;57.07;2.20;;;;;;;;;;5072009;28;20968;-68
2023/05/01 06:31:47;;;;;;;57.00;2.50;;;;;;;;;;5072289;28;20454;-68
2023/05/01 06:34:14;;;;;;;58.47;3.87;;;;;;;;;;5072206;28;20451;-68
2023/05/01 06:36:41;;;;;;;57.40;2.57;;;;;;;;;;5072232;28;20951;-68
2023/05/01 06:39:09;;;;;;;57.07;2.37;;;;;;;;;;5071893;28;20453;-68
2023/05/01 06:41:37;;;;;;;57.20;2.50;;;;;;;;;;5072062;28;20447;-68
2023/05/01 06:44:04;;;;;;;57.30;2.87;;;;;;;;;;5072142;28;20458;-68
2023/05/01 06:46:33;;;;;;;57.70;3.27;;;;;;;;;;5072015;28;20447;-68
2023/05/01 06:49:00;;;;;;;57.07;2.17;;;;;;;;;;5072141;28;20842;-68
2023/05/01 06:51:29;;;;;;;57.70;3.10;;;;;;;;;;5072253;28;20462;-68
2023/05/01 06:53:56;;;;;;;56.97;2.20;;;;;;;;;;5072145;28;20534;-68
2023/05/01 06:56:23;;;;;;;57.07;2.40;;;;;;;;;;5071981;28;20936;-68
2023/05/01 06:58:50;;;;;;;57.07;2.70;;;;;;;;;;5071722;28;20446;-68
2023/05/01 07:01:17;;;;;;;56.97;2.30;;;;;;;;;;5071884;28;20459;-68
2023/05/01 07:03:46;;;;;;;57.07;2.23;;;;;;;;;;5071833;28;20451;-68
2023/05/01 07:06:13;;;;;;;57.17;2.27;;;;;;;;;;5071917;28;20927;-68
2023/05/01 07:08:40;;;;;;;57.30;2.70;;;;;;;;;;5071583;28;20518;-68
2023/05/01 07:11:08;;;;;;;57.40;2.67;;;;;;;;;;5071851;28;21001;-68
2023/05/01 07:13:35;;;;;;;57.60;2.90;;;;;;;;;;5071745;28;20443;-68
2023/05/01 07:16:02;;;;;;;56.90;2.03;;;;;;;;;;5071797;28;21074;-69
2023/05/01 07:18:29;;;;;;;57.20;3.03;;;;;;;;;;5071753;28;20436;-69
2023/05/01 07:20:57;;;;;;;57.30;2.50;;;;;;;;;;5071574;28;20467;-69
2023/05/01 07:23:25;;;;;;;59.87;4.03;;;;;;;;;;5072057;28;20947;-69
2023/05/01 07:25:53;;;;;;;56.93;2.20;;;;;;;;;;5071650;28;20487;-69
2023/05/01 07:28:20;;;;;;;57.30;2.73;;;;;;;;;;5071585;28;20487;-69
2023/05/01 07:30:47;;;;;;;56.87;2.07;;;;;;;;;;5071383;28;20472;-69
2023/05/01 07:33:15;;;;;;;56.90;2.17;;;;;;;;;;5071784;28;20795;-68
2023/05/01 07:35:42;;;;;;;56.97;2.50;;;;;;;;;;5071722;28;20447;-69
2023/05/01 07:38:12;;;;;;;56.97;2.23;;;;;;;;;;5075118;28;20454;-69
2023/05/01 07:40:39;;;;;;;56.93;2.10;;;;;;;;;;5075259;28;20477;-69
2023/05/01 07:43:09;;;;;;;57.27;2.07;;;;;;;;;;5075790;28;20486;-69
2023/05/01 07:45:37;;;;;;;57.10;2.53;;;;;;;;;;5075680;28;20455;-69
2023/05/01 07:48:04;;;;;;;58.00;2.77;;;;;;;;;;5075744;28;20560;-69
2023/05/01 07:50:31;;;;;;;57.40;2.97;;;;;;;;;;5075085;28;20557;-69
2023/05/01 07:52:58;;;;;;;56.87;2.50;;;;;;;;;;5075408;28;20469;-68
2023/05/01 07:55:27;;;;;;;57.17;2.70;;;;;;;;;;5075741;28;20450;-69
2023/05/01 07:57:54;;;;;;;57.70;3.70;;;;;;;;;;5075453;28;20440;-68
2023/05/01 08:00:22;;;;;;;56.93;2.17;;;;;;;;;;5074870;28;20517;-69
2023/05/01 08:02:49;;;;;;;56.73;2.20;;;;;;;;;;5075434;28;20451;-68
2023/05/01 08:05:16;;;;;;;56.90;2.70;;;;;;;;;;5074838;28;20451;-68
2023/05/01 08:07:43;;;;;;;57.20;2.10;;;;;;;;;;5074762;28;21021;-69
2023/05/01 08:10:10;;;;;;;57.50;2.70;;;;;;;;;;5074715;28;20470;-69
2023/05/01 08:12:39;;;;;;;56.83;2.10;;;;;;;;;;5075041;28;20451;-69
2023/05/01 08:15:07;;;;;;;57.10;2.50;;;;;;;;;;5074833;28;20967;-69
2023/05/01 08:17:35;;;;;;;56.73;2.10;;;;;;;;;;5074925;28;20445;-69
2023/05/01 08:20:03;;;;;;;56.80;2.10;;;;;;;;;;5074486;28;20467;-69
2023/05/01 08:22:30;;;;;;;56.97;2.90;;;;;;;;;;5074729;28;20451;-69
2023/05/01 08:24:58;;;;;;;57.00;2.30;;;;;;;;;;5074730;28;20463;-69
2023/05/01 08:27:25;;;;;;;57.40;2.50;;;;;;;;;;5074699;28;20455;-69
2023/05/01 08:29:53;;;;;;;57.20;2.30;;;;;;;;;;5074155;28;20463;-69
2023/05/01 08:32:20;;;;;;;56.77;2.53;;;;;;;;;;5074469;28;20447;-69
2023/05/01 08:34:47;;;;;;;57.10;2.50;;;;;;;;;;5074503;28;20457;-69
2023/05/01 08:37:15;;;;;;;58.30;3.77;;;;;;;;;;5074762;28;20447;-69
2023/05/01 08:39:42;;;;;;;56.97;2.30;;;;;;;;;;5074553;28;20458;-69
2023/05/01 08:42:09;;;;;;;56.73;2.20;;;;;;;;;;5074512;28;20512;-69
2023/05/01 08:44:39;;;;;;;56.80;2.10;;;;;;;;;;5074353;28;20443;-69
2023/05/01 08:47:12;;;;;;;57.00;2.23;;;;;;;;;;5073712;28;21005;-69
2023/05/01 08:49:39;;;;;;;56.90;2.30;;;;;;;;;;5073936;28;20922;-69
2023/05/01 08:52:07;;;;;;;56.93;2.10;;;;;;;;;;5074300;28;20451;-69
2023/05/01 08:54:35;;;;;;;57.20;2.40;;;;;;;;;;5074165;28;20455;-69
2023/05/01 08:57:03;;;;;;;58.17;2.73;;;;;;;;;;5074350;28;20458;-69
2023/05/01 08:59:31;;;;;;;57.30;2.70;;;;;;;;;;5073860;28;20821;-69
2023/05/01 09:02:00;;;;;;;57.00;2.30;;;;;;;;;;5073850;28;20451;-69
2023/05/01 09:04:32;;;;;;;56.97;2.47;;;;;;;;;;5074187;28;20865;-69
2023/05/01 09:07:00;;;;;;;57.00;2.30;;;;;;;;;;5074184;28;20458;-69
2023/05/01 09:09:28;;;;;;;58.53;2.60;;;;;;;;;;5073417;28;20509;-68
2023/05/01 09:11:56;;;;;;;57.30;2.60;;;;;;;;;;5073877;28;20444;-69
2023/05/01 09:14:24;;;;;;;57.10;2.33;;;;;;;;;;5074003;28;20447;-69
2023/05/01 09:16:51;;;;;;;57.07;2.20;;;;;;;;;;5073728;28;21015;-69
2023/05/01 09:19:19;;;;;;;57.80;2.50;;;;;;;;;;5073466;28;20472;-69
2023/05/01 09:21:47;;;;;;;56.97;2.30;;;;;;;;;;5073652;28;20989;-69
2023/05/01 09:24:14;;;;;;;57.47;2.50;;;;;;;;;;5073586;28;20466;-69
2023/05/01 09:26:42;;;;;;;56.87;2.10;;;;;;;;;;5073507;28;20943;-69
2023/05/01 09:29:10;;;;;;;56.73;2.17;;;;;;;;;;5072909;28;20479;-69
2023/05/01 09:31:37;;;;;;;57.00;2.37;;;;;;;;;;5073434;28;20456;-69
2023/05/01 09:34:05;;;;;;;57.03;2.47;;;;;;;;;;5073596;28;20447;-69
2023/05/01 09:36:33;;;;;;;57.17;2.27;;;;;;;;;;5073665;28;20447;-69
2023/05/01 09:39:02;;;;;;;56.90;2.80;;;;;;;;;;5073103;28;20447;-69
2023/05/01 09:41:32;;;;;;;57.00;2.40;;;;;;;;;;5073260;28;20865;-69
2023/05/01 09:44:00;;;;;;;56.77;2.00;;;;;;;;;;5073373;28;20458;-69
2023/05/01 09:46:27;;;;;;;57.17;2.73;;;;;;;;;;5073194;28;20459;-69
2023/05/01 09:48:58;;;;;;;57.20;2.20;;;;;;;;;;5072892;28;20479;-69
2023/05/01 09:51:26;;;;;;;58.73;2.77;;;;;;;;;;5073155;28;20455;-69
2023/05/01 09:53:55;;;;;;;58.03;2.90;;;;;;;;;;5073046;28;20448;-69
2023/05/01 09:56:23;;;;;;;57.53;2.57;;;;;;;;;;5073222;28;20538;-69
2023/05/01 09:58:52;;;;;;;57.83;2.30;;;;;;;;;;5071764;28;20823;-69
2023/05/01 10:01:19;;;;;;;56.87;2.27;;;;;;;;;;5072991;28;21016;-69
2023/05/01 10:03:46;;;;;;;56.87;2.23;;;;;;;;;;5072936;28;20501;-67
2023/05/01 10:06:27;;;;;;;57.00;2.23;;;;;;;;;;5072753;28;20447;-67
2023/05/01 10:08:54;;;;;;;59.60;3.97;;;;;;;;;;5072488;28;20490;-67
2023/05/01 10:11:22;;;;;;;56.67;2.30;;;;;;;;;;5072806;28;20451;-67
2023/05/01 10:14:05;;;;;;;57.17;2.53;;;;;;;;;;5072518;28;20455;-67
2023/05/01 10:16:34;;;;;;;57.40;2.93;;;;;;;;;;5072580;28;20453;-67
2023/05/01 10:19:02;;;;;;;55.97;2.10;;;;;;;;;;5072203;28;20447;-67
2023/05/01 10:21:29;;;;;;;57.70;3.70;;;;;;;;;;5072425;28;20547;-67
2023/05/01 10:23:56;;;;;;;57.30;3.00;;;;;;;;;;5072710;28;20470;-67
2023/05/01 10:26:25;;;;;;;57.27;2.63;;;;;;;;;;5072323;28;20939;-67
2023/05/01 10:28:53;;;;;;;57.70;2.73;;;;;;;;;;5071797;28;21011;-67
2023/05/01 10:31:21;;;;;;;56.87;2.70;;;;;;;;;;5072224;28;20864;-67
2023/05/01 10:33:49;;;;;;;57.30;2.70;;;;;;;;;;5072085;28;20486;-67
2023/05/01 10:36:18;;;;;;;58.07;2.97;;;;;;;;;;5072169;28;20447;-67
2023/05/01 10:38:47;;;;;;;57.17;2.80;;;;;;;;;;5071833;28;20462;-67
2023/05/01 10:41:15;;;;;;;57.27;3.00;;;;;;;;;;5072022;28;20468;-67
2023/05/01 10:43:42;;;;;;;57.27;2.60;;;;;;;;;;5072301;28;20447;-67
2023/05/01 10:46:25;;;;;;;57.50;2.77;;;;;;;;;;5071958;28;20443;-68
2023/05/01 10:49:00;;;;;;;58.30;2.83;;;;;;;;;;5070192;28;20581;-67
2023/05/01 10:51:27;;;;;;;57.40;2.57;;;;;;;;;;5072090;28;20454;-67
2023/05/01 10:54:13;;;;;;;57.40;3.03;;;;;;;;;;5071925;28;20451;-68
2023/05/01 10:56:42;;;;;;;57.40;3.50;;;;;;;;;;5071817;28;20455;-68
2023/05/01 10:59:10;;;;;;;57.10;2.80;;;;;;;;;;5071723;28;20469;-67
2023/05/01 11:01:38;;;;;;;57.10;2.50;;;;;;;;;;5071933;28;20447;-67
2023/05/01 11:04:08;;;;;;;57.20;2.20;;;;;;;;;;5071758;28;20983;-68
2023/05/01 11:06:36;;;;;;;57.30;2.73;;;;;;;;;;5071784;28;20500;-70
2023/05/01 11:09:23;;;;;;;57.67;2.47;;;;;;;;;;5071169;28;20487;-68
2023/05/01 11:11:51;;;;;;;57.20;2.37;;;;;;;;;;5071359;28;20458;-68
2023/05/01 11:14:18;;;;;;;57.13;2.77;;;;;;;;;;5071844;28;20451;-68
2023/05/01 11:16:47;;;;;;;57.17;2.93;;;;;;;;;;5071649;28;20517;-68
2023/05/01 11:19:33;;;;;;;57.30;2.40;;;;;;;;;;5071282;28;20573;-68
2023/05/01 11:22:01;;;;;;;64.40;3.00;;;;;;;;;;5071876;28;20850;-68
2023/05/01 11:24:32;;;;;;;56.77;1.90;;;;;;;;;;5071592;28;20491;-68
2023/05/01 11:26:59;;;;;;;58.30;2.90;;;;;;;;;;5071479;28;20450;-68
2023/05/01 11:29:31;;;;;;;57.00;3.27;;;;;;;;;;5071137;28;20518;-68
2023/05/01 11:31:59;;;;;;;57.23;2.73;;;;;;;;;;5071531;28;20447;-68
2023/05/01 11:34:26;;;;;;;57.97;3.47;;;;;;;;;;5071627;28;20447;-68
2023/05/01 11:36:53;;;;;;;57.50;3.00;;;;;;;;;;5071681;28;20451;-68
2023/05/01 11:39:22;;;;;;;56.70;2.43;;;;;;;;;;5071306;28;20466;-68
2023/05/01 11:41:49;;;;;;;57.00;2.67;;;;;;;;;;5071502;28;20454;-69
2023/05/01 11:44:17;;;;;;;57.17;3.00;;;;;;;;;;5071337;28;20940;-68
2023/05/01 11:46:44;;;;;;;57.67;2.27;;;;;;;;;;5071379;28;20824;-68
2023/05/01 11:49:11;;;;;;;57.00;2.73;;;;;;;;;;5070830;28;20522;-68
2023/05/01 11:51:39;;;;;;;57.37;2.63;;;;;;;;;;5071467;28;20443;-68
2023/05/01 11:54:06;;;;;;;58.63;2.70;;;;;;;;;;5071411;28;20451;-68
2023/05/01 11:56:35;;;;;;;56.60;2.57;;;;;;;;;;5071192;28;20944;-68
2023/05/01 11:59:10;;;;;;;56.50;2.50;;;;;;;;;;5070759;28;20514;-68
2023/05/01 12:01:38;;;;;;;57.40;2.60;;;;;;;;;;5071353;28;20883;-68
2023/05/01 12:04:07;;;;;;;58.37;3.00;;;;;;;;;;5071193;28;20453;-68
2023/05/01 12:06:39;;;;;;;57.67;2.77;;;;;;;;;;5071482;28;20512;-68
2023/05/01 12:09:07;;;;;;;57.23;2.63;;;;;;;;;;5070778;28;20478;-68
2023/05/01 12:11:36;;;;;;;57.07;2.50;;;;;;;;;;5070966;28;20451;-68
2023/05/01 12:14:03;;;;;;;57.33;2.83;;;;;;;;;;5071350;28;20447;-68
2023/05/01 12:16:31;;;;;;;58.10;3.87;;;;;;;;;;5071187;28;20943;-68
2023/05/01 12:18:58;;;;;;;57.67;3.00;;;;;;;;;;5070800;28;20538;-68
2023/05/01 12:21:26;;;;;;;57.40;2.60;;;;;;;;;;5071116;28;20865;-68
2023/05/01 12:23:54;;;;;;;56.80;2.63;;;;;;;;;;5073828;28;20498;-68
2023/05/01 12:26:22;;;;;;;56.97;2.90;;;;;;;;;;5074962;28;20508;-68
2023/05/01 12:29:00;;;;;;;56.87;2.50;;;;;;;;;;5074615;28;20546;-68
2023/05/01 12:31:28;;;;;;;57.20;3.43;;;;;;;;;;5074795;28;20447;-68
2023/05/01 12:33:56;;;;;;;57.40;2.33;;;;;;;;;;5074681;28;20443;-68
2023/05/01 12:36:24;;;;;;;56.87;2.47;;;;;;;;;;5074460;28;20443;-68
2023/05/01 12:39:09;;;;;;;57.50;3.07;;;;;;;;;;5074107;28;20525;-68
2023/05/01 12:41:37;;;;;;;56.87;2.10;;;;;;;;;;5074536;28;20447;-68
2023/05/01 12:44:17;;;;;;;57.97;2.60;;;;;;;;;;5074507;28;20449;-69
2023/05/01 12:46:46;;;;;;;56.97;3.07;;;;;;;;;;5074418;28;20849;-68
2023/05/01 12:49:16;;;;;;;56.80;2.47;;;;;;;;;;5073735;28;20529;-68
2023/05/01 12:51:46;;;;;;;57.10;2.30;;;;;;;;;;5074433;28;20479;-69
2023/05/01 12:54:18;;;;;;;57.50;2.90;;;;;;;;;;5074801;28;20505;-69
2023/05/01 12:56:45;;;;;;;56.80;2.33;;;;;;;;;;5074281;28;20448;-69
2023/05/01 12:59:22;;;;;;;57.30;2.50;;;;;;;;;;5073829;28;20468;-69
2023/05/01 13:01:49;;;;;;;56.87;2.60;;;;;;;;;;5074308;28;20505;-69
2023/05/01 13:04:21;;;;;;;56.50;2.23;;;;;;;;;;5074233;28;20451;-69
2023/05/01 13:06:48;;;;;;;56.80;2.77;;;;;;;;;;5073990;28;20447;-69
2023/05/01 13:09:16;;;;;;;57.90;2.47;;;;;;;;;;5073441;28;20487;-69
2023/05/01 13:11:43;;;;;;;57.47;3.13;;;;;;;;;;5073932;28;20444;-69
2023/05/01 13:14:10;;;;;;;60.43;2.70;;;;;;;;;;5073811;28;20458;-69
2023/05/01 13:16:46;;;;;;;57.10;2.70;;;;;;;;;;5073812;28;20463;-69
2023/05/01 13:19:13;;;;;;;57.10;2.80;;;;;;;;;;5073381;28;20997;-69
2023/05/01 13:21:47;;;;;;;57.20;2.30;;;;;;;;;;5073762;28;20830;-69
2023/05/01 13:24:14;;;;;;;57.10;2.77;;;;;;;;;;5073436;28;20459;-69
2023/05/01 13:26:42;;;;;;;57.00;2.70;;;;;;;;;;5073606;28;20455;-69
2023/05/01 13:29:14;;;;;;;57.87;3.03;;;;;;;;;;5073233;28;20458;-69
2023/05/01 13:31:43;;;;;;;57.60;2.70;;;;;;;;;;5073668;28;20447;-69
2023/05/01 13:34:12;;;;;;;57.97;3.07;;;;;;;;;;5073505;28;20444;-69
2023/05/01 13:36:40;;;;;;;56.70;2.40;;;;;;;;;;5073590;28;20450;-69
2023/05/01 13:39:07;;;;;;;57.17;2.80;;;;;;;;;;5072833;28;20456;-69
2023/05/01 13:41:35;;;;;;;69.70;3.13;;;;;;;;;;5073529;28;20452;-69
2023/05/01 13:44:02;;;;;;;57.40;2.93;;;;;;;;;;5073481;28;20528;-69
2023/05/01 13:46:30;;;;;;;57.30;2.73;;;;;;;;;;5073224;28;20962;-69
2023/05/01 13:48:58;;;;;;;57.10;2.37;;;;;;;;;;5072649;28;20451;-69
2023/05/01 13:51:27;;;;;;;57.10;2.93;;;;;;;;;;5072959;28;20530;-68
2023/05/01 13:53:56;;;;;;;57.10;2.77;;;;;;;;;;5073273;28;20450;-69
2023/05/01 13:56:23;;;;;;;57.60;3.03;;;;;;;;;;5073007;28;20447;-69
2023/05/01 13:58:50;;;;;;;57.30;2.67;;;;;;;;;;5072747;28;20443;-68
2023/05/01 14:01:18;;;;;;;57.20;2.50;;;;;;;;;;5072862;28;20471;-69
2023/05/01 14:03:45;;;;;;;57.30;2.40;;;;;;;;;;5072913;28;20447;-69
2023/05/01 14:06:13;;;;;;;57.07;2.00;;;;;;;;;;5072768;28;20951;-69
2023/05/01 14:08:43;;;;;;;57.13;2.20;;;;;;;;;;5072567;28;20453;-68
2023/05/01 14:11:11;;;;;;;57.87;2.80;;;;;;;;;;5072498;28;20937;-69
2023/05/01 14:13:40;;;;;;;57.60;2.93;;;;;;;;;;5072669;28;20452;-69
2023/05/01 14:16:09;;;;;;;64.47;3.93;;;;;;;;;;5072602;28;20955;-69
2023/05/01 14:18:37;;;;;;;56.97;2.27;;;;;;;;;;5072161;28;20474;-68
2023/05/01 14:21:04;;;;;;;57.50;2.70;;;;;;;;;;5072703;28;20469;-69
2023/05/01 14:23:33;;;;;;;57.20;2.67;;;;;;;;;;5072515;28;20459;-68
2023/05/01 14:26:03;;;;;;;57.07;2.67;;;;;;;;;;5072476;28;20451;-69
2023/05/01 14:28:31;;;;;;;57.23;2.50;;;;;;;;;;5072277;28;20501;-69
2023/05/01 14:30:58;;;;;;;60.23;3.97;;;;;;;;;;5072046;28;20487;-69
2023/05/01 14:33:26;;;;;;;56.90;2.13;;;;;;;;;;5072402;28;20486;-69
2023/05/01 14:35:54;;;;;;;57.30;2.50;;;;;;;;;;5072295;28;20455;-69
2023/05/01 14:38:21;;;;;;;57.50;2.50;;;;;;;;;;5072242;28;20443;-69